createdAt,value
2024-05-09T00:01:07.351Z,90.18
2024-05-09T00:03:43.399Z,91.75
2024-05-09T00:06:11.931Z,91.88
2024-05-09T00:08:40.212Z,91.71
2024-05-09T00:11:08.575Z,91.97
2024-05-09T00:13:36.910Z,92.68
2024-05-09T00:16:06.650Z,91.97
2024-05-09T00:18:35.104Z,91.48
2024-05-09T00:21:05.979Z,91.81
2024-05-09T00:23:34.170Z,92.27
2024-05-09T00:26:02.720Z,92.09
2024-05-09T00:28:30.966Z,92.11
2024-05-09T00:30:59.344Z,93.02
2024-05-09T00:33:27.925Z,92.58
2024-05-09T00:35:56.376Z,92.17
2024-05-09T00:38:24.738Z,92.32
2024-05-09T00:40:53.098Z,93.48
2024-05-09T00:43:21.398Z,93.25
2024-05-09T00:45:49.723Z,92.59
2024-05-09T00:48:20.741Z,91.52
2024-05-09T00:50:50.990Z,90.97
2024-05-09T00:53:19.647Z,90.82
2024-05-09T00:55:48.681Z,90.59
2024-05-09T00:58:22.721Z,90.91
2024-05-09T01:00:51.262Z,92.38
2024-05-09T01:03:20.379Z,93.23
2024-05-09T01:05:48.999Z,93.31
2024-05-09T01:08:18.428Z,92.94
2024-05-09T01:10:48.547Z,92.59
2024-05-09T01:13:17.309Z,92.13
2024-05-09T01:15:48.101Z,92.15
2024-05-09T01:18:16.672Z,92.54
2024-05-09T01:20:45.665Z,92.94
2024-05-09T01:23:16.124Z,93.80
2024-05-09T01:25:46.552Z,91.91
2024-05-09T01:28:16.199Z,92.20
2024-05-09T01:30:44.526Z,93.12
2024-05-09T01:33:13.506Z,92.43
2024-05-09T01:35:43.069Z,92.53
2024-05-09T01:38:17.351Z,93.98
2024-05-09T01:40:47.293Z,93.00
2024-05-09T01:43:16.137Z,93.94
2024-05-09T01:45:44.681Z,94.30
2024-05-09T01:48:13.094Z,94.99
2024-05-09T01:50:43.124Z,95.11
2024-05-09T01:53:15.073Z,94.87
2024-05-09T01:55:44.496Z,95.01
2024-05-09T01:58:13.383Z,95.23
2024-05-09T02:00:43.226Z,95.17
2024-05-09T02:03:16.885Z,94.96
2024-05-09T02:05:51.730Z,95.69
2024-05-09T02:08:22.058Z,95.69
2024-05-09T02:10:51.017Z,96.01
2024-05-09T02:13:19.751Z,97.12
2024-05-09T02:15:52.243Z,97.64
2024-05-09T02:18:20.909Z,97.58
2024-05-09T02:20:49.508Z,97.24
2024-05-09T02:23:18.303Z,96.65
2024-05-09T02:25:46.721Z,96.59
2024-05-09T02:28:15.022Z,97.32
2024-05-09T02:30:43.377Z,98.14
2024-05-09T02:33:13.513Z,98.99
2024-05-09T02:35:43.962Z,99.65
2024-05-09T02:38:13.724Z,99.15
2024-05-09T02:40:42.015Z,96.64
2024-05-09T02:43:12.972Z,97.17
2024-05-09T02:45:41.896Z,96.95
2024-05-09T02:48:12.775Z,97.07
2024-05-09T02:50:44.184Z,97.84
2024-05-09T02:53:13.519Z,98.24
2024-05-09T02:55:43.552Z,97.89
2024-05-09T02:58:12.390Z,97.69
2024-05-09T03:00:42.531Z,97.83
2024-05-09T03:03:14.460Z,98.13
2024-05-09T03:05:46.341Z,97.42
2024-05-09T03:08:15.202Z,97.22
2024-05-09T03:10:43.842Z,97.75
2024-05-09T03:13:15.455Z,96.47
2024-05-09T03:15:45.664Z,96.14
2024-05-09T03:18:15.018Z,96.09
2024-05-09T03:20:46.752Z,96.38
2024-05-09T03:23:15.140Z,96.41
2024-05-09T03:25:43.506Z,96.42
2024-05-09T03:28:12.263Z,96.74
2024-05-09T03:30:42.881Z,96.43
2024-05-09T03:33:22.903Z,96.24
2024-05-09T03:35:51.531Z,96.20
2024-05-09T03:38:19.865Z,96.03
2024-05-09T03:40:49.581Z,95.83
2024-05-09T03:43:19.807Z,95.17
2024-05-09T03:45:50.539Z,94.66
2024-05-09T03:48:18.974Z,93.95
2024-05-09T03:50:50.485Z,93.45
2024-05-09T03:53:18.869Z,93.23
2024-05-09T03:55:48.633Z,93.16
2024-05-09T03:58:17.080Z,93.16
2024-05-09T04:00:45.317Z,92.20
2024-05-09T04:03:15.038Z,91.36
2024-05-09T04:05:44.559Z,90.87
2024-05-09T04:08:15.657Z,90.70
2024-05-09T04:10:46.054Z,90.42
2024-05-09T04:13:14.627Z,90.39
2024-05-09T04:15:42.896Z,88.68
2024-05-09T04:18:12.774Z,87.52
2024-05-09T04:20:41.840Z,86.80
2024-05-09T04:23:14.934Z,85.57
2024-05-09T04:25:45.477Z,85.19
2024-05-09T04:28:14.688Z,85.14
2024-05-09T04:30:43.799Z,84.69
2024-05-09T04:33:15.045Z,84.61
2024-05-09T04:35:44.454Z,84.64
2024-05-09T04:38:14.672Z,83.89
2024-05-09T04:40:44.320Z,83.74
2024-05-09T04:43:18.944Z,83.54
2024-05-09T04:45:47.475Z,83.14
2024-05-09T04:48:16.617Z,83.41
2024-05-09T04:50:45.232Z,84.00
2024-05-09T04:53:17.042Z,85.45
2024-05-09T04:55:45.736Z,85.18
2024-05-09T04:58:14.215Z,85.28
2024-05-09T05:00:44.138Z,85.48
2024-05-09T05:03:14.986Z,85.15
2024-05-09T05:05:46.908Z,85.25
2024-05-09T05:08:17.440Z,84.98
2024-05-09T05:10:48.572Z,85.08
2024-05-09T05:13:22.448Z,84.90
2024-05-09T05:15:55.743Z,84.87
2024-05-09T05:18:28.603Z,84.53
2024-05-09T05:20:58.589Z,84.39
2024-05-09T05:23:27.164Z,84.03
2024-05-09T05:25:55.845Z,83.85
2024-05-09T05:28:24.650Z,83.53
2024-05-09T05:30:52.862Z,83.32
2024-05-09T05:33:22.559Z,82.65
2024-05-09T05:35:51.551Z,83.07
2024-05-09T05:38:23.751Z,82.64
2024-05-09T05:40:54.877Z,79.89
2024-05-09T05:43:23.278Z,80.13
2024-05-09T05:45:51.518Z,80.07
2024-05-09T05:48:20.005Z,79.18
2024-05-09T05:50:48.514Z,78.21
2024-05-09T05:53:16.848Z,77.85
2024-05-09T05:55:45.256Z,77.29
2024-05-09T05:58:14.784Z,76.88
2024-05-09T06:00:43.506Z,74.39
2024-05-09T06:03:14.363Z,75.21
2024-05-09T06:05:45.749Z,76.07
2024-05-09T06:08:14.605Z,77.67
2024-05-09T06:10:43.118Z,75.33
2024-05-09T06:13:13.448Z,73.67
2024-05-09T06:15:43.718Z,75.18
2024-05-09T06:18:15.105Z,75.53
2024-05-09T06:20:44.329Z,74.13
2024-05-09T06:23:14.666Z,73.26
2024-05-09T06:25:43.808Z,71.85
2024-05-09T06:28:12.249Z,71.45
2024-05-09T06:30:42.505Z,73.01
2024-05-09T06:33:14.156Z,71.83
2024-05-09T06:35:46.236Z,71.99
2024-05-09T06:38:14.796Z,72.82
2024-05-09T06:40:44.269Z,74.08
2024-05-09T06:43:16.343Z,73.82
2024-05-09T06:45:48.413Z,72.15
2024-05-09T06:48:19.476Z,69.91
2024-05-09T06:50:48.591Z,70.31
2024-05-09T06:53:20.425Z,70.65
2024-05-09T06:55:49.286Z,70.14
2024-05-09T06:58:17.874Z,69.72
2024-05-09T07:00:46.359Z,69.93
2024-05-09T07:03:18.209Z,69.55
2024-05-09T07:05:49.278Z,69.26
2024-05-09T07:08:18.702Z,67.80
2024-05-09T07:10:47.413Z,66.36
2024-05-09T07:13:16.206Z,65.76
2024-05-09T07:15:44.559Z,65.79
2024-05-09T07:18:19.923Z,65.49
2024-05-09T07:20:50.289Z,65.94
2024-05-09T07:23:19.217Z,64.88
2024-05-09T07:25:47.999Z,65.62
2024-05-09T07:28:18.759Z,66.45
2024-05-09T07:30:47.256Z,65.15
2024-05-09T07:33:17.607Z,63.94
2024-05-09T07:35:46.618Z,63.31
2024-05-09T07:38:15.224Z,62.94
2024-05-09T07:40:43.672Z,63.68
2024-05-09T07:43:13.107Z,64.79
2024-05-09T07:45:50.757Z,63.61
2024-05-09T07:52:38.736Z,61.58
2024-05-09T07:53:48.335Z,59.51
2024-05-09T07:56:22.574Z,58.84
2024-05-09T07:58:55.833Z,58.90
2024-05-09T08:01:27.500Z,55.89
2024-05-09T08:03:56.496Z,55.01
2024-05-09T08:06:26.111Z,55.42
2024-05-09T08:08:54.428Z,54.51
2024-05-09T08:11:23.654Z,58.19
2024-05-09T08:13:51.882Z,57.07
2024-05-09T08:16:20.445Z,57.69
2024-05-09T08:18:50.312Z,57.23
2024-05-09T08:21:19.327Z,57.12
2024-05-09T08:23:47.531Z,53.65
2024-05-09T08:26:15.808Z,53.13
2024-05-09T08:28:44.116Z,50.63
2024-05-09T08:31:12.720Z,50.06
2024-05-09T08:33:47.042Z,50.85
2024-05-09T08:36:15.595Z,49.17
2024-05-09T08:38:43.913Z,49.25
2024-05-09T08:41:15.684Z,50.73
2024-05-09T08:43:44.909Z,50.74
2024-05-09T08:46:14.314Z,49.70
2024-05-09T08:48:45.805Z,48.96
2024-05-09T08:51:14.881Z,48.97
2024-05-09T08:53:43.214Z,49.66
2024-05-09T08:56:12.298Z,50.17
2024-05-09T08:58:42.748Z,49.26
2024-05-09T09:01:12.410Z,50.12
2024-05-09T09:03:42.691Z,50.33
2024-05-09T09:06:15.092Z,50.56
2024-05-09T09:08:45.095Z,48.19
2024-05-09T09:11:13.350Z,48.40
2024-05-09T09:13:41.744Z,49.35
2024-05-09T09:16:10.057Z,45.01
2024-05-09T09:18:38.904Z,45.67
2024-05-09T09:21:10.782Z,43.65
2024-05-09T09:23:43.387Z,48.05
2024-05-09T09:26:16.196Z,41.47
2024-05-09T09:28:47.132Z,44.65
2024-05-09T09:31:21.580Z,43.08
2024-05-09T09:33:50.135Z,44.65
2024-05-09T09:36:19.070Z,40.93
2024-05-09T09:38:48.376Z,41.18
2024-05-09T09:41:19.866Z,36.36
2024-05-09T09:43:48.434Z,37.90
2024-05-09T09:46:19.181Z,41.06
2024-05-09T09:48:48.988Z,38.92
2024-05-09T09:51:18.661Z,38.37
2024-05-09T09:53:49.137Z,40.64
2024-05-09T09:56:18.534Z,38.33
2024-05-09T09:58:48.243Z,38.00
2024-05-09T10:03:26.379Z,37.03
2024-05-09T10:05:54.913Z,36.52
2024-05-09T10:08:23.488Z,38.47
2024-05-09T10:10:51.028Z,36.22
2024-05-09T10:13:19.354Z,34.87
2024-05-09T10:15:50.932Z,35.71
2024-05-09T10:18:23.881Z,35.61
2024-05-09T10:20:52.792Z,38.03
2024-05-09T10:23:26.725Z,35.91
2024-05-09T10:26:05.903Z,33.36
2024-05-09T10:28:36.460Z,31.29
2024-05-09T10:31:21.918Z,32.26
2024-05-09T10:33:52.479Z,33.07
2024-05-09T10:36:22.362Z,36.03
2024-05-09T10:38:51.279Z,35.30
2024-05-09T10:41:20.359Z,35.70
2024-05-09T10:43:48.450Z,36.83
2024-05-09T10:46:16.167Z,36.16
2024-05-09T10:48:44.846Z,35.96
2024-05-09T10:51:13.879Z,36.64
2024-05-09T10:53:46.387Z,35.09
2024-05-09T10:56:14.457Z,35.84
2024-05-09T10:58:41.955Z,35.57
2024-05-09T11:01:10.488Z,35.95
2024-05-09T11:03:39.102Z,37.77
2024-05-09T11:06:10.470Z,36.96
2024-05-09T11:08:39.064Z,36.89
2024-05-09T11:11:10.218Z,36.87
2024-05-09T11:13:38.615Z,35.52
2024-05-09T11:16:18.993Z,36.55
2024-05-09T11:18:55.559Z,35.84
2024-05-09T11:21:23.960Z,36.84
2024-05-09T11:23:51.492Z,38.35
2024-05-09T11:26:21.369Z,35.74
2024-05-09T11:28:49.820Z,36.30
2024-05-09T11:31:17.316Z,37.70
2024-05-09T11:33:45.159Z,36.59
2024-05-09T11:36:13.132Z,36.01
2024-05-09T11:38:40.776Z,36.75
2024-05-09T11:41:08.011Z,37.26
2024-05-09T11:43:35.360Z,37.86
2024-05-09T11:46:03.231Z,36.11
2024-05-09T11:48:31.533Z,38.64
2024-05-09T11:50:59.110Z,37.21
2024-05-09T11:53:26.303Z,34.87
2024-05-09T11:55:53.707Z,34.99
2024-05-09T11:58:22.078Z,34.47
2024-05-09T12:00:49.667Z,36.16
2024-05-09T12:03:17.029Z,36.77
2024-05-09T12:05:44.914Z,37.43
2024-05-09T12:08:13.044Z,37.29
2024-05-09T12:10:40.442Z,38.19
2024-05-09T12:13:08.083Z,37.00
2024-05-09T12:15:37.821Z,36.12
2024-05-09T12:18:09.213Z,36.05
2024-05-09T12:20:39.322Z,35.94
2024-05-09T12:23:09.468Z,35.70
2024-05-09T12:25:38.594Z,34.87
2024-05-09T12:28:09.557Z,34.68
2024-05-09T12:30:41.380Z,35.59
2024-05-09T12:33:12.198Z,34.30
2024-05-09T12:35:43.225Z,34.63
2024-05-09T12:38:17.954Z,32.87
2024-05-09T12:40:45.317Z,33.71
2024-05-09T12:43:15.399Z,36.06
2024-05-09T12:45:42.946Z,36.39
2024-05-09T12:48:10.660Z,34.79
2024-05-09T12:50:38.697Z,33.96
2024-05-09T12:53:08.670Z,34.77
2024-05-09T12:55:45.186Z,32.72
2024-05-09T12:58:21.399Z,35.09
2024-05-09T13:00:48.840Z,35.82
2024-05-09T13:03:16.649Z,36.71
2024-05-09T13:05:45.264Z,36.65
2024-05-09T13:08:13.646Z,35.49
2024-05-09T13:10:41.784Z,33.82
2024-05-09T13:13:10.263Z,33.50
2024-05-09T13:15:37.948Z,34.23
2024-05-09T13:18:06.275Z,34.15
2024-05-09T13:20:36.419Z,32.62
2024-05-09T13:23:06.469Z,34.22
2024-05-09T13:25:36.311Z,34.46
2024-05-09T13:28:05.136Z,34.13
2024-05-09T13:30:40.066Z,33.80
2024-05-09T13:33:11.571Z,34.47
2024-05-09T13:35:45.578Z,33.47
2024-05-09T13:38:17.403Z,31.84
2024-05-09T13:40:45.147Z,33.50
2024-05-09T13:43:13.503Z,33.07
2024-05-09T13:45:40.940Z,33.29
2024-05-09T13:48:09.392Z,34.09
2024-05-09T13:50:37.316Z,33.23
2024-05-09T13:53:06.849Z,31.92
2024-05-09T13:55:39.565Z,30.95
2024-05-09T13:58:07.793Z,31.36
2024-05-09T14:00:44.772Z,30.95
2024-05-09T14:03:19.438Z,32.96
2024-05-09T14:05:50.139Z,32.91
2024-05-09T14:08:20.991Z,32.39
2024-05-09T14:10:48.547Z,33.53
2024-05-09T14:13:16.306Z,33.00
2024-05-09T14:15:45.134Z,33.30
2024-05-09T14:18:14.087Z,32.47
2024-05-09T14:20:42.844Z,32.30
2024-05-09T14:23:10.395Z,31.95
2024-05-09T14:25:41.775Z,33.18
2024-05-09T14:28:11.097Z,33.00
2024-05-09T14:30:39.310Z,33.16
2024-05-09T14:33:08.757Z,34.19
2024-05-09T14:35:37.804Z,34.28
2024-05-09T14:38:07.940Z,33.90
2024-05-09T14:40:41.672Z,34.61
2024-05-09T14:43:12.732Z,34.22
2024-05-09T14:45:41.894Z,34.61
2024-05-09T14:48:10.681Z,34.23
2024-05-09T14:50:40.129Z,34.55
2024-05-09T14:53:09.491Z,32.67
2024-05-09T14:55:42.624Z,32.96
2024-05-09T14:58:12.063Z,35.05
2024-05-09T15:00:45.683Z,33.32
2024-05-09T15:03:18.080Z,33.89
2024-05-09T15:05:46.903Z,32.79
2024-05-09T15:08:17.157Z,32.42
2024-05-09T15:10:44.621Z,32.97
2024-05-09T15:13:14.336Z,32.31
2024-05-09T15:15:43.639Z,32.71
2024-05-09T15:18:10.877Z,32.24
2024-05-09T15:20:39.763Z,32.79
2024-05-09T15:23:07.547Z,32.98
2024-05-09T15:25:36.499Z,33.50
2024-05-09T15:28:06.595Z,33.30
2024-05-09T15:30:34.957Z,32.93
2024-05-09T15:33:02.777Z,33.46
2024-05-09T15:35:30.032Z,34.09
2024-05-09T15:37:57.239Z,33.24
2024-05-09T15:40:34.393Z,32.80
2024-05-09T15:43:06.816Z,33.57
2024-05-09T15:45:34.886Z,33.49
2024-05-09T15:48:03.551Z,35.27
2024-05-09T15:50:37.734Z,34.64
2024-05-09T15:53:09.715Z,34.26
2024-05-09T15:55:38.453Z,33.44
2024-05-09T15:58:07.050Z,34.79
2024-05-09T16:00:39.276Z,35.43
2024-05-09T16:03:10.634Z,35.45
2024-05-09T16:05:38.735Z,35.48
2024-05-09T16:08:07.746Z,35.86
2024-05-09T16:10:41.353Z,35.79
2024-05-09T16:13:10.579Z,35.82
2024-05-09T16:15:38.052Z,35.71
2024-05-09T16:18:06.145Z,35.62
2024-05-09T16:20:39.091Z,35.52
2024-05-09T16:23:09.682Z,35.77
2024-05-09T16:25:37.522Z,36.10
2024-05-09T16:28:08.851Z,36.53
2024-05-09T16:30:39.284Z,36.42
2024-05-09T16:33:07.366Z,36.33
2024-05-09T16:35:35.419Z,36.55
2024-05-09T16:38:03.169Z,36.42
2024-05-09T16:40:37.422Z,36.79
2024-05-09T16:43:09.741Z,36.62
2024-05-09T16:45:39.656Z,36.74
2024-05-09T16:48:07.844Z,37.05
2024-05-09T16:50:36.365Z,36.98
2024-05-09T16:53:05.865Z,37.27
2024-05-09T16:55:34.979Z,37.15
2024-05-09T16:58:07.536Z,37.34
2024-05-09T17:00:40.780Z,37.23
2024-05-09T17:03:14.541Z,37.54
2024-05-09T17:06:22.296Z,38.01
2024-05-09T17:08:50.739Z,38.28
2024-05-09T17:11:19.288Z,38.59
2024-05-09T17:13:48.445Z,38.43
2024-05-09T17:19:04.648Z,41.74
2024-05-09T17:21:33.502Z,40.90
2024-05-09T17:24:01.758Z,40.68
2024-05-09T17:26:32.372Z,41.49
2024-05-09T17:29:00.923Z,43.21
2024-05-09T17:31:29.287Z,43.48
2024-05-09T17:33:58.578Z,43.95
2024-05-09T17:36:28.432Z,45.28
2024-05-09T17:38:57.474Z,45.69
2024-05-09T17:41:26.747Z,44.59
2024-05-09T17:43:55.057Z,44.34
2024-05-09T17:46:23.709Z,44.69
2024-05-09T17:48:52.168Z,46.53
2024-05-09T17:51:23.613Z,46.88
2024-05-09T17:53:55.686Z,45.40
2024-05-09T17:56:26.311Z,46.83
2024-05-09T17:58:54.872Z,47.68
2024-05-09T18:01:24.166Z,47.66
2024-05-09T18:03:52.935Z,46.62
2024-05-09T18:06:21.604Z,47.38
2024-05-09T18:08:51.006Z,49.98
2024-05-09T18:11:23.126Z,48.97
2024-05-09T18:13:54.334Z,49.26
2024-05-09T18:16:23.602Z,48.51
2024-05-09T18:18:58.093Z,48.16
2024-05-09T18:21:27.203Z,49.73
2024-05-09T18:24:00.156Z,51.80
2024-05-09T18:26:29.306Z,51.42
2024-05-09T18:28:57.936Z,52.89
2024-05-09T18:31:26.346Z,53.33
2024-05-09T18:33:55.237Z,53.98
2024-05-09T18:36:24.160Z,54.22
2024-05-09T18:38:52.704Z,54.52
2024-05-09T18:41:22.135Z,53.39
2024-05-09T18:43:51.494Z,53.51
2024-05-09T18:46:20.056Z,53.94
2024-05-09T18:48:48.826Z,54.74
2024-05-09T18:51:19.367Z,54.83
2024-05-09T18:53:47.869Z,56.20
2024-05-09T18:56:16.166Z,56.58
2024-05-09T18:58:47.222Z,53.72
2024-05-09T19:01:19.098Z,54.13
2024-05-09T19:03:51.469Z,56.99
2024-05-09T19:06:23.900Z,57.21
2024-05-09T19:08:53.080Z,59.33
2024-05-09T19:11:21.559Z,59.96
2024-05-09T19:13:50.004Z,61.12
2024-05-09T19:16:18.836Z,59.30
2024-05-09T19:18:51.447Z,58.80
2024-05-09T19:21:19.965Z,59.60
2024-05-09T19:23:52.340Z,60.08
2024-05-09T19:26:24.318Z,60.35
2024-05-09T19:28:52.850Z,61.17
2024-05-09T19:31:21.122Z,62.06
2024-05-09T19:33:49.593Z,58.45
2024-05-09T19:36:19.545Z,57.39
2024-05-09T19:38:48.787Z,60.26
2024-05-09T19:41:17.860Z,59.84
2024-05-09T19:43:47.611Z,59.41
2024-05-09T19:46:17.468Z,62.69
2024-05-09T19:48:46.171Z,61.65
2024-05-09T19:51:14.853Z,61.18
2024-05-09T19:53:46.809Z,63.84
2024-05-09T19:56:15.073Z,64.71
2024-05-09T19:58:44.100Z,63.96
2024-05-09T20:01:12.479Z,63.27
2024-05-09T20:03:40.898Z,64.58
2024-05-09T20:06:09.270Z,65.06
2024-05-09T20:08:38.046Z,66.77
2024-05-09T20:11:06.383Z,67.08
2024-05-09T20:13:34.735Z,67.79
2024-05-09T20:16:03.027Z,67.27
2024-05-09T20:18:31.598Z,66.23
2024-05-09T20:21:01.085Z,66.52
2024-05-09T20:23:30.538Z,68.43
2024-05-09T20:25:59.978Z,68.61
2024-05-09T20:28:29.818Z,68.68
2024-05-09T20:30:58.279Z,69.09
2024-05-09T20:33:28.254Z,69.00
2024-05-09T20:36:00.523Z,68.74
2024-05-09T20:38:30.029Z,67.42
2024-05-09T20:40:58.357Z,68.88
2024-05-09T20:43:26.795Z,70.22
2024-05-09T20:45:55.254Z,67.94
2024-05-09T20:48:24.694Z,69.61
2024-05-09T20:50:53.216Z,70.93
2024-05-09T20:53:21.497Z,70.96
2024-05-09T20:55:49.715Z,73.06
2024-05-09T20:58:17.969Z,71.58
2024-05-09T21:00:46.712Z,71.82
2024-05-09T21:03:17.040Z,72.36
2024-05-09T21:05:48.251Z,72.16
2024-05-09T21:08:17.182Z,71.62
2024-05-09T21:10:45.607Z,73.17
2024-05-09T21:13:14.197Z,71.10
2024-05-09T21:15:42.541Z,69.40
2024-05-09T21:18:10.857Z,72.01
2024-05-09T21:20:39.177Z,74.19
2024-05-09T21:23:07.828Z,72.74
2024-05-09T21:25:36.215Z,73.06
2024-05-09T21:28:04.858Z,74.02
2024-05-09T21:30:41.019Z,74.25
2024-05-09T21:33:13.666Z,73.47
2024-05-09T21:35:44.537Z,73.96
2024-05-09T21:38:14.766Z,74.71
2024-05-09T21:40:45.222Z,75.24
2024-05-09T21:43:14.409Z,75.45
2024-05-09T21:45:43.437Z,76.41
2024-05-09T21:48:13.167Z,75.01
2024-05-09T21:50:42.544Z,73.28
2024-05-09T21:53:12.734Z,74.14
2024-05-09T21:55:47.247Z,74.50
2024-05-09T22:02:12.478Z,72.31
2024-05-09T22:04:41.902Z,74.31
2024-05-09T22:07:10.335Z,73.99
2024-05-09T22:09:41.014Z,73.44
2024-05-09T22:12:09.516Z,75.06
2024-05-09T22:14:37.967Z,75.85
2024-05-09T22:17:06.572Z,75.96
2024-05-09T22:19:34.979Z,75.82
2024-05-09T22:22:03.701Z,77.22
2024-05-09T22:24:32.224Z,77.94
2024-05-09T22:27:00.660Z,78.45
2024-05-09T22:29:29.011Z,80.86
2024-05-09T22:31:57.279Z,81.99
2024-05-09T22:34:25.762Z,80.41
2024-05-09T22:36:54.087Z,82.16
2024-05-09T22:39:23.400Z,83.72
2024-05-09T22:41:51.690Z,83.94
2024-05-09T22:44:20.014Z,83.55
2024-05-09T22:46:48.187Z,82.15
2024-05-09T22:49:16.528Z,81.60
2024-05-09T22:51:44.821Z,82.60
2024-05-09T22:54:13.445Z,84.85
2024-05-09T22:56:43.030Z,84.54
2024-05-09T22:59:11.286Z,84.95
2024-05-09T23:01:39.801Z,86.00
2024-05-09T23:04:08.251Z,83.64
2024-05-09T23:06:40.871Z,84.57
2024-05-09T23:09:10.715Z,85.54
2024-05-09T23:11:45.003Z,84.40
2024-05-09T23:14:13.367Z,86.97
2024-05-09T23:16:42.503Z,87.66
2024-05-09T23:19:10.835Z,87.53
2024-05-09T23:21:40.711Z,87.26
2024-05-09T23:24:08.963Z,86.55
2024-05-09T23:26:42.247Z,87.71
2024-05-09T23:29:10.685Z,87.32
2024-05-09T23:31:40.535Z,88.60
2024-05-09T23:34:08.810Z,88.23
2024-05-09T23:36:38.435Z,87.87
2024-05-09T23:39:06.734Z,88.01
2024-05-09T23:41:34.941Z,88.93
2024-05-09T23:44:03.311Z,88.79
2024-05-09T23:46:31.579Z,89.20
2024-05-09T23:49:00.320Z,89.83
2024-05-09T23:51:28.493Z,90.28
2024-05-09T23:53:56.809Z,90.28
2024-05-09T23:56:25.065Z,88.81
2024-05-09T23:58:53.310Z,87.47
